Disclaimer

Please do not use the information listed here in-flight or in-navigation, as they are not provided to us by the airports but are provided by volunteers, so they might be outdated.

Search


Regions


Airport information page

Radio informations:
Tower (TWR) - 118.1 MHz
Automatic Terminal Information Service (ATIS) - 122.45 MHz
Aerodrome flight information system (AFIS) - 119.4 MHz

Airport informations:
Latitude: 59° 21' 15.74" N
Longitude: 017° 56' 29.94" E
Elevation: 47 feet - 14 meters
Operating hours: Remarks
Operating agency: Civil government, landing fees and diplomatic clearance may be required
Timezone: UTC+1(+2DT) - Last Sunday in March to last Sunday in October
Fuel: N/A

Runway information:
12/30 - 5472 x 148 feet< - >1668 x 45 meters

Recent METARs:
ESSB 211820Z VRB02KT 9999 BKN022 01/M02 Q1033 R30/09//95
ESSB 211850Z 34003KT 260V030 9999 BKN022 01/M02 Q1033 R30/09//95
ESSB 211920Z VRB02KT 9999 BKN021 01/M02 Q1033 R30/09//95

Airport on the map: